createdAt,value
2019-04-29T00:01:37.364Z,9.70
2019-04-29T00:04:06.119Z,9.70
2019-04-29T00:06:34.837Z,9.70
2019-04-29T00:09:06.767Z,9.60
2019-04-29T00:11:34.624Z,9.60
2019-04-29T00:14:05.039Z,9.50
2019-04-29T00:16:38.246Z,9.50
2019-04-29T00:19:27.406Z,9.50
2019-04-29T00:21:56.228Z,9.50
2019-04-29T00:24:25.926Z,9.40
2019-04-29T00:26:53.825Z,9.40
2019-04-29T00:29:22.536Z,9.30
2019-04-29T00:31:51.431Z,9.20
2019-04-29T00:34:21.937Z,9.20
2019-04-29T00:37:04.580Z,9.20
2019-04-29T00:39:52.924Z,9.20
2019-04-29T00:42:32.063Z,9.10
2019-04-29T00:45:00.898Z,9.10
2019-04-29T00:47:31.579Z,9.00
2019-04-29T00:50:00.729Z,9.00
2019-04-29T00:52:29.773Z,8.90
2019-04-29T00:55:08.947Z,8.90
2019-04-29T00:57:37.682Z,8.80
2019-04-29T01:00:08.382Z,8.80
2019-04-29T01:02:37.169Z,8.80
2019-04-29T01:05:07.007Z,8.80
2019-04-29T01:07:34.869Z,8.80
2019-04-29T01:10:03.669Z,8.70
2019-04-29T01:12:33.917Z,8.70
2019-04-29T01:15:02.683Z,8.70
2019-04-29T01:17:31.493Z,8.60
2019-04-29T01:20:00.213Z,8.60
2019-04-29T01:22:29.845Z,8.50
2019-04-29T01:24:58.611Z,8.50
2019-04-29T01:27:29.035Z,8.40
2019-04-29T01:30:00.816Z,8.40
2019-04-29T01:32:29.799Z,8.40
2019-04-29T01:34:58.518Z,8.40
2019-04-29T01:37:28.906Z,8.30
2019-04-29T01:40:02.351Z,8.30
2019-04-29T01:42:35.399Z,8.30
2019-04-29T01:45:04.991Z,8.20
2019-04-29T01:47:33.730Z,8.20
2019-04-29T01:50:02.472Z,8.20
2019-04-29T01:52:31.255Z,8.20
2019-04-29T01:55:00.044Z,8.10
2019-04-29T01:57:28.773Z,8.10
2019-04-29T01:59:57.514Z,8.10
2019-04-29T02:02:26.305Z,8.10
2019-04-29T02:04:55.050Z,8.10
2019-04-29T02:07:23.826Z,8.00
2019-04-29T02:09:54.201Z,8.00
2019-04-29T02:12:22.912Z,8.00
2019-04-29T02:14:51.653Z,7.90
2019-04-29T02:17:20.411Z,7.90
2019-04-29T02:19:49.096Z,7.90
2019-04-29T02:22:25.170Z,7.90
2019-04-29T02:24:55.553Z,7.90
2019-04-29T02:27:24.273Z,7.90
2019-04-29T02:29:52.998Z,7.90
2019-04-29T02:32:21.729Z,7.80
2019-04-29T02:34:50.458Z,7.80
2019-04-29T02:37:20.864Z,7.70
2019-04-29T02:39:51.194Z,7.80
2019-04-29T02:42:39.671Z,7.80
2019-04-29T02:45:12.882Z,7.70
2019-04-29T02:47:43.216Z,7.60
2019-04-29T02:50:11.919Z,7.60
2019-04-29T02:52:40.663Z,7.60
2019-04-29T02:55:11.260Z,7.60
2019-04-29T02:57:47.311Z,7.50
2019-04-29T03:00:26.925Z,7.50
2019-04-29T03:03:00.079Z,7.50
2019-04-29T03:05:30.452Z,7.50
2019-04-29T03:07:59.298Z,7.50
2019-04-29T03:10:28.113Z,7.50
2019-04-29T03:12:56.909Z,7.50
2019-04-29T03:15:32.861Z,7.50
2019-04-29T03:18:01.917Z,7.50
2019-04-29T03:20:34.921Z,7.50
2019-04-29T03:23:08.717Z,7.50
2019-04-29T03:25:37.507Z,7.50
2019-04-29T03:28:06.450Z,7.50
2019-04-29T03:30:35.161Z,7.50
2019-04-29T03:33:03.918Z,7.50
2019-04-29T03:35:32.624Z,7.50
2019-04-29T03:38:01.380Z,7.60
2019-04-29T03:40:30.178Z,7.60
2019-04-29T03:42:58.892Z,7.60
2019-04-29T03:45:27.621Z,7.70
2019-04-29T03:47:56.348Z,7.70
2019-04-29T03:50:25.070Z,7.70
2019-04-29T03:52:53.793Z,7.70
2019-04-29T03:55:38.231Z,7.70
2019-04-29T03:57:52.868Z,7.80
2019-04-29T04:00:23.085Z,7.80
2019-04-29T04:02:59.269Z,7.80
2019-04-29T04:05:29.664Z,7.90
2019-04-29T04:08:02.513Z,7.90
2019-04-29T04:10:31.306Z,7.90
2019-04-29T04:13:00.050Z,8.00
2019-04-29T04:15:29.735Z,8.00
2019-04-29T04:18:05.152Z,8.10
2019-04-29T04:20:33.959Z,8.10
2019-04-29T04:23:02.693Z,8.20
2019-04-29T04:25:31.445Z,8.30
2019-04-29T04:28:00.161Z,8.30
2019-04-29T04:30:28.989Z,8.30
2019-04-29T04:32:57.715Z,8.40
2019-04-29T04:35:26.446Z,8.50
2019-04-29T04:37:55.166Z,8.50
2019-04-29T04:40:27.010Z,8.60
2019-04-29T04:42:55.726Z,8.70
2019-04-29T04:45:24.532Z,8.70
2019-04-29T04:47:53.266Z,8.80
2019-04-29T04:50:22.009Z,8.90
2019-04-29T04:52:50.727Z,9.00
2019-04-29T04:55:21.089Z,9.10
2019-04-29T04:57:49.805Z,9.20
2019-04-29T05:00:27.379Z,9.30
2019-04-29T05:02:56.109Z,9.40
2019-04-29T05:05:24.844Z,9.40
2019-04-29T05:07:53.573Z,9.50
2019-04-29T05:10:22.307Z,9.60
2019-04-29T05:12:51.052Z,9.50
2019-04-29T05:15:19.837Z,9.60
2019-04-29T05:17:52.878Z,9.60
2019-04-29T05:20:21.698Z,9.80
2019-04-29T05:22:59.504Z,9.80
2019-04-29T05:25:30.222Z,9.90
2019-04-29T05:27:58.966Z,10.00
2019-04-29T05:30:27.743Z,10.00
2019-04-29T05:32:56.469Z,10.20
2019-04-29T05:35:39.895Z,10.20
2019-04-29T05:38:23.025Z,10.20
2019-04-29T05:40:56.898Z,10.30
2019-04-29T05:43:27.188Z,10.50
2019-04-29T05:46:01.502Z,10.50
2019-04-29T05:48:31.991Z,10.50
2019-04-29T05:51:02.296Z,10.70
2019-04-29T05:53:54.706Z,10.70
2019-04-29T05:56:20.056Z,10.70
2019-04-29T05:58:48.829Z,10.70
2019-04-29T06:01:19.210Z,10.80
2019-04-29T06:03:47.959Z,10.80
2019-04-29T06:06:16.668Z,10.90
2019-04-29T06:08:45.388Z,10.90
2019-04-29T06:11:14.134Z,11.00
2019-04-29T06:13:42.854Z,11.10
2019-04-29T06:16:15.760Z,11.10
2019-04-29T06:18:42.040Z,11.20
2019-04-29T06:21:10.712Z,11.30
2019-04-29T06:23:39.515Z,11.40
2019-04-29T06:26:08.229Z,11.40
2019-04-29T06:28:37.023Z,11.40
2019-04-29T06:31:05.746Z,11.40
2019-04-29T06:33:34.478Z,11.50
2019-04-29T06:36:03.217Z,11.40
2019-04-29T06:38:31.942Z,11.60
2019-04-29T06:41:00.693Z,11.70
2019-04-29T06:43:30.681Z,11.80
2019-04-29T06:45:59.573Z,11.90
2019-04-29T06:48:28.381Z,12.00
2019-04-29T06:50:57.105Z,12.00
2019-04-29T06:53:26.132Z,12.00
2019-04-29T06:55:54.889Z,11.90
2019-04-29T06:58:23.608Z,11.90
2019-04-29T07:00:55.762Z,12.10
2019-04-29T07:03:25.552Z,12.00
2019-04-29T07:05:53.069Z,12.10
2019-04-29T07:08:21.890Z,12.30
2019-04-29T07:10:50.624Z,12.20
2019-04-29T07:13:22.770Z,12.30
2019-04-29T07:15:49.733Z,12.30
2019-04-29T07:18:18.461Z,12.30
2019-04-29T07:20:47.195Z,12.50
2019-04-29T07:23:15.972Z,12.60
2019-04-29T07:25:44.700Z,12.60
2019-04-29T07:28:13.690Z,12.60
2019-04-29T07:31:00.685Z,12.70
2019-04-29T07:33:21.825Z,12.70
2019-04-29T07:35:48.053Z,12.80
2019-04-29T07:38:15.002Z,12.80
2019-04-29T07:40:44.637Z,12.80
2019-04-29T07:43:12.632Z,12.90
2019-04-29T07:45:45.949Z,12.90
2019-04-29T07:48:14.690Z,13.00
2019-04-29T07:50:43.721Z,13.10
2019-04-29T07:53:12.538Z,13.10
2019-04-29T07:55:41.294Z,13.20
2019-04-29T07:58:10.039Z,13.30
2019-04-29T08:00:38.762Z,13.30
2019-04-29T08:03:08.426Z,13.40
2019-04-29T08:05:36.314Z,13.50
2019-04-29T08:08:05.849Z,13.60
2019-04-29T08:10:34.734Z,13.80
2019-04-29T08:13:04.468Z,14.00
2019-04-29T08:15:32.400Z,14.20
2019-04-29T08:18:06.709Z,14.40
2019-04-29T08:20:31.492Z,14.40
2019-04-29T08:23:02.594Z,14.70
2019-04-29T08:25:30.622Z,15.00
2019-04-29T08:27:59.339Z,15.30
2019-04-29T08:30:28.082Z,15.30
2019-04-29T08:32:56.764Z,15.50
2019-04-29T08:35:25.474Z,15.70
2019-04-29T08:37:54.192Z,15.80
2019-04-29T08:40:22.935Z,15.90
2019-04-29T08:42:59.301Z,16.00
2019-04-29T08:45:39.092Z,16.10
2019-04-29T08:48:06.034Z,16.30
2019-04-29T08:50:34.769Z,16.40
2019-04-29T08:53:04.311Z,16.70
2019-04-29T08:55:36.000Z,16.80
2019-04-29T08:58:06.783Z,17.00
2019-04-29T09:00:32.188Z,17.00
2019-04-29T09:03:01.004Z,17.30
2019-04-29T09:05:29.697Z,17.60
2019-04-29T09:07:59.067Z,17.80
2019-04-29T09:10:27.055Z,17.70
2019-04-29T09:12:55.772Z,18.10
2019-04-29T09:15:24.500Z,18.20
2019-04-29T09:17:53.264Z,18.40
2019-04-29T09:20:22.113Z,18.70
2019-04-29T09:22:58.261Z,18.80
2019-04-29T09:25:28.662Z,19.30
2019-04-29T09:27:59.053Z,19.40
2019-04-29T09:30:27.870Z,19.40
2019-04-29T09:32:56.582Z,19.90
2019-04-29T09:35:28.445Z,19.90
2019-04-29T09:37:58.507Z,20.10
2019-04-29T09:40:27.678Z,20.60
2019-04-29T09:43:15.807Z,20.60
2019-04-29T09:45:42.395Z,20.90
2019-04-29T09:48:11.210Z,21.40
2019-04-29T09:50:40.991Z,21.60
2019-04-29T09:53:09.972Z,21.70
2019-04-29T09:55:39.919Z,21.50
2019-04-29T09:58:09.148Z,21.70
2019-04-29T10:00:46.532Z,22.30
2019-04-29T10:03:26.045Z,22.00
2019-04-29T10:05:56.420Z,22.10
2019-04-29T10:08:25.163Z,22.30
2019-04-29T10:10:53.895Z,22.40
2019-04-29T10:13:22.691Z,22.80
2019-04-29T10:16:05.221Z,22.70
2019-04-29T10:18:35.603Z,22.80
2019-04-29T10:21:06.080Z,22.50
2019-04-29T10:23:34.812Z,22.50
2019-04-29T10:26:03.623Z,22.70
2019-04-29T10:28:33.633Z,21.50
2019-04-29T10:31:03.664Z,22.00
2019-04-29T10:33:32.391Z,22.40
2019-04-29T10:36:01.296Z,23.20
2019-04-29T10:38:30.026Z,23.70
2019-04-29T10:41:09.869Z,23.90
2019-04-29T10:43:40.239Z,23.60
2019-04-29T10:46:10.616Z,23.40
2019-04-29T10:48:43.829Z,23.80
2019-04-29T10:51:14.262Z,23.40
2019-04-29T10:53:46.725Z,23.50
2019-04-29T10:56:13.435Z,24.00
2019-04-29T10:58:43.625Z,23.90
2019-04-29T11:01:29.206Z,23.70
2019-04-29T11:04:00.899Z,23.60
2019-04-29T11:06:31.432Z,23.90
2019-04-29T11:08:59.243Z,23.50
2019-04-29T11:11:29.814Z,23.40
2019-04-29T11:14:01.468Z,23.80
2019-04-29T11:16:45.280Z,24.80
2019-04-29T11:19:03.080Z,25.10
2019-04-29T11:21:31.313Z,24.50
2019-04-29T11:24:04.560Z,24.60
2019-04-29T11:26:37.749Z,24.70
2019-04-29T11:29:09.371Z,24.80
2019-04-29T11:31:37.820Z,25.40
2019-04-29T11:34:11.592Z,26.00
2019-04-29T11:36:44.095Z,26.10
2019-04-29T11:39:15.197Z,27.10
2019-04-29T11:41:44.211Z,28.10
2019-04-29T11:44:12.997Z,28.30
2019-04-29T11:46:44.721Z,27.90
2019-04-29T11:49:13.639Z,28.70
2019-04-29T11:52:07.726Z,28.20
2019-04-29T11:54:18.098Z,29.00
2019-04-29T11:56:44.904Z,29.00
2019-04-29T11:59:15.365Z,29.80
2019-04-29T12:01:53.499Z,29.50
2019-04-29T12:04:36.100Z,29.00
2019-04-29T12:07:04.920Z,29.10
2019-04-29T12:09:33.068Z,29.40
2019-04-29T12:12:01.892Z,29.50
2019-04-29T12:14:33.794Z,29.70
2019-04-29T12:17:13.431Z,30.50
2019-04-29T12:19:43.823Z,30.40
2019-04-29T12:22:26.924Z,30.10
2019-04-29T12:24:42.990Z,29.70
2019-04-29T12:27:14.837Z,29.70
2019-04-29T12:29:41.633Z,30.40
2019-04-29T12:32:30.399Z,31.00
2019-04-29T12:35:03.451Z,30.80
2019-04-29T12:37:39.939Z,30.30
2019-04-29T12:40:14.465Z,30.00
2019-04-29T12:42:43.070Z,29.80
2019-04-29T12:45:19.475Z,29.60
2019-04-29T12:47:45.294Z,29.80
2019-04-29T12:50:17.494Z,29.90
2019-04-29T12:52:44.678Z,30.70
2019-04-29T12:55:20.228Z,30.30
2019-04-29T12:57:44.682Z,29.60
2019-04-29T13:00:14.173Z,30.10
2019-04-29T13:03:01.732Z,30.00
2019-04-29T13:05:31.894Z,29.90
2019-04-29T13:08:18.469Z,30.00
2019-04-29T13:10:48.892Z,29.90
2019-04-29T13:13:20.115Z,29.70
2019-04-29T13:15:54.384Z,29.80
2019-04-29T13:18:42.962Z,29.60
2019-04-29T13:21:11.702Z,29.20
2019-04-29T13:23:53.581Z,29.20
2019-04-29T13:26:09.984Z,29.40
2019-04-29T13:28:51.686Z,29.20
2019-04-29T13:31:08.282Z,28.30
2019-04-29T13:33:36.231Z,28.80
2019-04-29T13:36:05.741Z,28.90
2019-04-29T13:38:34.482Z,28.30
2019-04-29T13:41:12.837Z,27.70
2019-04-29T13:43:35.314Z,26.90
2019-04-29T13:46:10.494Z,26.30
2019-04-29T13:49:06.194Z,25.50
2019-04-29T13:51:44.011Z,24.80
2019-04-29T13:54:13.014Z,24.10
2019-04-29T13:56:55.409Z,23.70
2019-04-29T13:59:12.927Z,23.30
2019-04-29T14:02:02.912Z,22.50
2019-04-29T14:04:33.700Z,21.90
2019-04-29T14:07:02.428Z,21.30
2019-04-29T14:09:34.911Z,21.00
2019-04-29T14:12:31.369Z,21.20
2019-04-29T14:14:31.962Z,21.70
2019-04-29T14:17:17.417Z,22.70
2019-04-29T14:19:41.103Z,23.10
2019-04-29T14:22:01.555Z,22.80
2019-04-29T14:24:30.274Z,22.10
2019-04-29T14:26:59.067Z,21.60
2019-04-29T14:29:28.782Z,21.20
2019-04-29T14:32:01.334Z,20.50
2019-04-29T14:34:36.302Z,20.20
2019-04-29T14:37:19.561Z,20.00
2019-04-29T14:39:37.673Z,19.60
2019-04-29T14:42:10.534Z,19.40
2019-04-29T14:44:57.171Z,18.90
2019-04-29T14:47:33.569Z,18.70
2019-04-29T14:50:10.643Z,18.50
2019-04-29T14:52:37.618Z,18.50
2019-04-29T14:55:07.727Z,18.30
2019-04-29T14:57:36.464Z,18.40
2019-04-29T15:00:09.103Z,18.20
2019-04-29T15:02:37.872Z,17.80
2019-04-29T15:05:12.281Z,17.70
2019-04-29T15:07:37.950Z,17.50
2019-04-29T15:10:08.338Z,17.50
2019-04-29T15:13:01.444Z,17.30
2019-04-29T15:15:34.247Z,17.30
2019-04-29T15:18:18.721Z,17.40
2019-04-29T15:21:01.872Z,17.40
2019-04-29T15:23:32.997Z,17.40
2019-04-29T15:26:01.949Z,17.10
2019-04-29T15:28:30.672Z,17.00
2019-04-29T15:30:59.464Z,17.10
2019-04-29T15:33:30.519Z,17.20
2019-04-29T15:35:59.839Z,17.00
2019-04-29T15:38:29.024Z,16.80
2019-04-29T15:40:57.776Z,16.70
2019-04-29T15:43:45.699Z,16.60
2019-04-29T15:45:56.895Z,16.60
2019-04-29T15:48:25.591Z,16.70
2019-04-29T15:50:54.334Z,16.90
2019-04-29T15:53:23.059Z,16.90
2019-04-29T15:56:05.929Z,17.00
2019-04-29T15:58:27.059Z,17.00
2019-04-29T16:00:52.808Z,16.90
2019-04-29T16:03:21.804Z,16.80
2019-04-29T16:06:19.686Z,16.70
2019-04-29T16:08:51.302Z,16.50
2019-04-29T16:11:33.449Z,16.30
2019-04-29T16:14:09.581Z,16.40
2019-04-29T16:16:35.198Z,16.20
2019-04-29T16:19:07.977Z,16.10
2019-04-29T16:21:39.053Z,16.10
2019-04-29T16:24:24.906Z,15.90
2019-04-29T16:26:39.391Z,16.10
2019-04-29T16:29:13.233Z,18.20
2019-04-29T16:31:38.654Z,19.70
2019-04-29T16:34:07.482Z,21.00
2019-04-29T16:36:36.308Z,21.90
2019-04-29T16:39:07.078Z,22.10
2019-04-29T16:41:43.698Z,22.90
2019-04-29T16:44:34.539Z,23.30
2019-04-29T16:46:50.036Z,23.30
2019-04-29T16:49:19.128Z,23.60
2019-04-29T16:51:53.487Z,24.00
2019-04-29T16:54:22.171Z,23.90
2019-04-29T16:56:50.178Z,23.40
2019-04-29T16:59:18.923Z,23.70
2019-04-29T17:01:47.917Z,23.80
2019-04-29T17:04:16.628Z,23.80
2019-04-29T17:07:10.699Z,23.50
2019-04-29T17:09:33.664Z,22.30
2019-04-29T17:12:02.798Z,21.60
2019-04-29T17:14:31.572Z,20.60
2019-04-29T17:17:00.419Z,20.10
2019-04-29T17:19:29.248Z,19.80
2019-04-29T17:22:24.101Z,19.70
2019-04-29T17:24:28.602Z,19.40
2019-04-29T17:27:07.091Z,18.90
2019-04-29T17:29:39.349Z,18.00
2019-04-29T17:32:22.608Z,17.20
2019-04-29T17:34:58.700Z,16.60
2019-04-29T17:37:22.985Z,16.30
2019-04-29T17:39:50.858Z,16.00
2019-04-29T17:42:19.668Z,15.70
2019-04-29T17:44:51.642Z,15.60
2019-04-29T17:47:42.503Z,15.40
2019-04-29T17:50:31.324Z,15.30
2019-04-29T17:52:59.832Z,15.10
2019-04-29T17:55:38.055Z,15.00
2019-04-29T17:58:02.327Z,14.90
2019-04-29T18:00:56.220Z,14.80
2019-04-29T18:03:25.219Z,14.70
2019-04-29T18:05:58.670Z,14.50
2019-04-29T18:08:29.104Z,14.50
2019-04-29T18:11:06.596Z,14.40
2019-04-29T18:13:35.255Z,14.40
2019-04-29T18:16:17.106Z,14.40
2019-04-29T18:18:48.939Z,14.20
2019-04-29T18:21:20.620Z,14.20
2019-04-29T18:23:51.526Z,14.00
2019-04-29T18:26:27.427Z,13.90
2019-04-29T18:29:03.572Z,13.80
2019-04-29T18:31:30.698Z,13.70
2019-04-29T18:33:59.275Z,13.60
2019-04-29T18:36:28.287Z,13.50
2019-04-29T18:38:57.144Z,13.50
2019-04-29T18:41:28.766Z,13.50
2019-04-29T18:44:02.763Z,13.40
2019-04-29T18:46:31.070Z,13.30
2019-04-29T18:49:05.266Z,13.20
2019-04-29T18:51:36.174Z,13.20
2019-04-29T18:54:07.719Z,13.10
2019-04-29T18:56:37.804Z,13.00
2019-04-29T18:59:06.798Z,13.00
2019-04-29T19:01:35.604Z,13.00
2019-04-29T19:04:21.376Z,13.00
2019-04-29T19:06:51.269Z,12.90
2019-04-29T19:09:22.344Z,12.80
2019-04-29T19:11:53.095Z,12.70
2019-04-29T19:14:25.562Z,12.70
2019-04-29T19:16:52.720Z,12.70
2019-04-29T19:19:22.475Z,12.60
2019-04-29T19:21:51.241Z,12.60
2019-04-29T19:24:20.065Z,12.60
2019-04-29T19:26:48.801Z,12.50
2019-04-29T19:29:17.541Z,12.60
2019-04-29T19:31:49.723Z,12.60
2019-04-29T19:34:18.663Z,12.50
2019-04-29T19:36:50.674Z,12.40
2019-04-29T19:39:21.727Z,12.40
2019-04-29T19:41:50.364Z,12.40
2019-04-29T19:44:18.283Z,12.30
2019-04-29T19:46:47.019Z,12.30
2019-04-29T19:49:15.854Z,12.30
2019-04-29T19:51:47.352Z,12.30
2019-04-29T19:54:16.935Z,12.30
2019-04-29T19:56:45.455Z,12.30
2019-04-29T19:59:17.108Z,12.30
2019-04-29T20:01:48.949Z,12.20
2019-04-29T20:04:23.381Z,12.20
2019-04-29T20:06:58.451Z,12.20
2019-04-29T20:09:24.609Z,12.20
2019-04-29T20:11:55.509Z,12.10
2019-04-29T20:14:27.435Z,12.10
2019-04-29T20:17:09.480Z,12.10
2019-04-29T20:19:45.098Z,12.10
2019-04-29T20:22:13.520Z,12.10
2019-04-29T20:24:43.027Z,12.00
2019-04-29T20:27:13.627Z,12.00
2019-04-29T20:29:42.495Z,12.00
2019-04-29T20:32:11.616Z,12.00
2019-04-29T20:34:40.568Z,12.00
2019-04-29T20:37:10.841Z,11.90
2019-04-29T20:39:39.987Z,11.90
2019-04-29T20:42:10.456Z,11.90
2019-04-29T20:44:44.484Z,11.80
2019-04-29T20:47:19.089Z,11.80
2019-04-29T20:49:40.208Z,11.80
2019-04-29T20:52:20.245Z,11.80
2019-04-29T20:54:52.665Z,11.80
2019-04-29T20:57:21.402Z,11.80
2019-04-29T20:59:50.458Z,11.80
2019-04-29T21:02:30.323Z,11.80
2019-04-29T21:04:48.881Z,11.80
2019-04-29T21:07:23.936Z,11.80
2019-04-29T21:09:48.302Z,11.80
2019-04-29T21:12:25.540Z,11.70
2019-04-29T21:14:59.164Z,11.70
2019-04-29T21:17:31.579Z,11.70
2019-04-29T21:19:56.834Z,11.70
2019-04-29T21:22:26.044Z,11.60
2019-04-29T21:24:55.099Z,11.60
2019-04-29T21:27:25.849Z,11.50
2019-04-29T21:29:55.451Z,11.50
2019-04-29T21:32:25.764Z,11.50
2019-04-29T21:34:56.423Z,11.50
2019-04-29T21:37:46.659Z,11.50
2019-04-29T21:40:20.517Z,11.40
2019-04-29T21:42:50.889Z,11.40
2019-04-29T21:45:19.685Z,11.40
2019-04-29T21:47:53.214Z,11.40
2019-04-29T21:50:18.986Z,11.30
2019-04-29T21:52:47.706Z,11.30
2019-04-29T21:55:20.609Z,11.30
2019-04-29T21:57:46.812Z,11.20
2019-04-29T22:00:24.066Z,11.20
2019-04-29T22:02:49.093Z,11.10
2019-04-29T22:05:18.318Z,11.10
2019-04-29T22:07:47.560Z,11.10
2019-04-29T22:10:20.015Z,11.10
2019-04-29T22:12:50.887Z,11.10
2019-04-29T22:15:29.249Z,11.00
2019-04-29T22:17:56.199Z,11.00
2019-04-29T22:20:18.561Z,10.90
2019-04-29T22:22:47.795Z,11.00
2019-04-29T22:25:16.705Z,10.90
2019-04-29T22:27:45.507Z,10.80
2019-04-29T22:30:18.418Z,10.80
2019-04-29T22:32:47.160Z,10.80
2019-04-29T22:35:16.689Z,10.70
2019-04-29T22:37:45.539Z,10.70
2019-04-29T22:40:17.249Z,10.60
2019-04-29T22:43:05.113Z,10.60
2019-04-29T22:45:33.796Z,10.60
2019-04-29T22:48:14.643Z,10.60
2019-04-29T22:50:33.673Z,10.50
2019-04-29T22:53:05.167Z,10.50
2019-04-29T22:55:37.147Z,10.50
2019-04-29T22:58:08.117Z,10.40
2019-04-29T23:00:33.902Z,10.40
2019-04-29T23:03:03.556Z,10.40
2019-04-29T23:05:32.367Z,10.40
2019-04-29T23:08:01.102Z,10.30
2019-04-29T23:10:29.848Z,10.30
2019-04-29T23:12:58.580Z,10.30
2019-04-29T23:15:27.311Z,10.20
2019-04-29T23:17:56.050Z,10.20
2019-04-29T23:20:42.859Z,10.20
2019-04-29T23:23:22.225Z,10.20
2019-04-29T23:25:55.691Z,10.10
2019-04-29T23:28:26.905Z,10.10
2019-04-29T23:30:54.988Z,10.10
2019-04-29T23:33:25.884Z,10.10
2019-04-29T23:35:56.016Z,10.10
2019-04-29T23:38:25.554Z,10.00
2019-04-29T23:40:56.245Z,10.00
2019-04-29T23:43:28.295Z,10.00
2019-04-29T23:45:56.956Z,9.90
2019-04-29T23:48:38.089Z,9.90
2019-04-29T23:50:58.099Z,9.90
2019-04-29T23:53:26.640Z,9.80
2019-04-29T23:55:59.873Z,9.80
2019-04-29T23:58:32.592Z,9.80
